地図

経路データ

SID SEASON NUMBER BASIN SUBBASIN NAME ISO_TIME NATURE LAT LON WMO_WIND WMO_PRES WMO_AGENCY TRACK_TYPE DIST2LAND LANDFALL IFLAG USA_AGENCY USA_ATCF_ID USA_LAT USA_LON USA_RECORD USA_STATUS USA_WIND USA_PRES USA_SSHS USA_R34_NE USA_R34_SE USA_R34_SW USA_R34_NW USA_R50_NE USA_R50_SE USA_R50_SW USA_R50_NW USA_R64_NE USA_R64_SE USA_R64_SW USA_R64_NW USA_POCI USA_ROCI USA_RMW USA_EYE TOKYO_LAT TOKYO_LON TOKYO_GRADE TOKYO_WIND TOKYO_PRES TOKYO_R50_DIR TOKYO_R50_LONG TOKYO_R50_SHORT TOKYO_R30_DIR TOKYO_R30_LONG TOKYO_R30_SHORT TOKYO_LAND CMA_LAT CMA_LON CMA_CAT CMA_WIND CMA_PRES HKO_LAT HKO_LON HKO_CAT HKO_WIND HKO_PRES NEWDELHI_LAT NEWDELHI_LON NEWDELHI_GRADE NEWDELHI_WIND NEWDELHI_PRES NEWDELHI_CI NEWDELHI_DP NEWDELHI_POCI REUNION_LAT REUNION_LON REUNION_TYPE REUNION_WIND REUNION_PRES REUNION_TNUM REUNION_CI REUNION_RMW REUNION_R34_NE REUNION_R34_SE REUNION_R34_SW REUNION_R34_NW REUNION_R50_NE REUNION_R50_SE REUNION_R50_SW REUNION_R50_NW REUNION_R64_NE REUNION_R64_SE REUNION_R64_SW REUNION_R64_NW BOM_LAT BOM_LON BOM_TYPE BOM_WIND BOM_PRES BOM_TNUM BOM_CI BOM_RMW BOM_R34_NE BOM_R34_SE BOM_R34_SW BOM_R34_NW BOM_R50_NE BOM_R50_SE BOM_R50_SW BOM_R50_NW BOM_R64_NE BOM_R64_SE BOM_R64_SW BOM_R64_NW BOM_ROCI BOM_POCI BOM_EYE BOM_POS_METHOD BOM_PRES_METHOD NADI_LAT NADI_LON NADI_CAT NADI_WIND NADI_PRES WELLINGTON_LAT WELLINGTON_LON WELLINGTON_WIND WELLINGTON_PRES DS824_LAT DS824_LON DS824_STAGE DS824_WIND DS824_PRES TD9636_LAT TD9636_LON TD9636_STAGE TD9636_WIND TD9636_PRES TD9635_LAT TD9635_LON TD9635_WIND TD9635_PRES TD9635_ROCI NEUMANN_LAT NEUMANN_LON NEUMANN_CLASS NEUMANN_WIND NEUMANN_PRES MLC_LAT MLC_LON MLC_CLASS MLC_WIND MLC_PRES USA_GUST BOM_GUST BOM_GUST_PER REUNION_GUST REUNION_GUST_PER USA_SEAHGT USA_SEARAD_NE USA_SEARAD_SE USA_SEARAD_SW USA_SEARAD_NW STORM_SPEED STORM_DIR
1932331N10128 1932 77 WP MM NOT_NAMED 1932-11-26 10:00:00 NR 9.50000 128.000 main 200 160 __________O___ -1 9.50000 128.000 7 12 289
1932331N10128 1932 77 WP MM NOT_NAMED 1932-11-26 12:00:00 NR 9.62919 127.627 main 160 119 __________P___ -1 9.62919 127.627 7 12 289
1932331N10128 1932 77 WP MM NOT_NAMED 1932-11-26 15:00:00 NR 9.81788 127.075 main 119 78 __________P___ -1 9.81788 127.075 7 11 289
1932331N10128 1932 77 WP MM NOT_NAMED 1932-11-26 18:00:00 NR 9.99454 126.546 main 78 68 __________P___ -1 9.99454 126.546 7 11 288
1932331N10128 1932 77 WP MM NOT_NAMED 1932-11-26 21:00:00 NR 10.1526 126.054 main 78 64 __________P___ -1 10.1526 126.054 7 10 288
1932331N10128 1932 77 WP MM NOT_NAMED 1932-11-26 22:00:00 NR 10.2000 125.900 main 64 32 __________O___ -1 10.2000 125.900 3 9 287
1932331N10128 1932 77 WP MM NOT_NAMED 1932-11-27 00:00:00 NR 10.2866 125.610 main 32 0 __________P___ -1 10.2866 125.610 3 8 287
1932331N10128 1932 77 WP MM NOT_NAMED 1932-11-27 03:00:00 NR 10.4040 125.214 main 0 0 __________P___ -1 10.4040 125.214 3 8 287
1932331N10128 1932 77 WP MM NOT_NAMED 1932-11-27 06:00:00 NR 10.5201 124.851 main 0 0 __________P___ -1 10.5201 124.851 3 7 290
1932331N10128 1932 77 WP MM NOT_NAMED 1932-11-27 09:00:00 NR 10.6506 124.511 main 22 22 __________P___ -1 10.6506 124.511 3 7 292
1932331N10128 1932 77 WP MM NOT_NAMED 1932-11-27 10:00:00 NR 10.7000 124.400 main 22 15 __________O___ -1 10.7000 124.400 4 7 292
1932331N10128 1932 77 WP MM NOT_NAMED 1932-11-27 12:00:00 NR 10.7847 124.164 main 21 0 __________P___ -1 10.7847 124.164 4 7 292
1932331N10128 1932 77 WP MM NOT_NAMED 1932-11-27 15:00:00 NR 10.9300 123.822 main 10 10 __________P___ -1 10.9300 123.822 4 7 297
1932331N10128 1932 77 WP MM NOT_NAMED 1932-11-27 18:00:00 NR 11.1222 123.498 main 22 10 __________P___ -1 11.1222 123.498 4 8 307
1932331N10128 1932 77 WP MM NOT_NAMED 1932-11-27 21:00:00 NR 11.3894 123.196 main 10 0 __________P___ -1 11.3894 123.196 4 8 314
1932331N10128 1932 77 WP MM NOT_NAMED 1932-11-27 22:00:00 NR 11.5000 123.100 main 0 0 __________O___ -1 11.5000 123.100 4 10 321
1932331N10128 1932 77 WP MM NOT_NAMED 1932-11-28 00:00:00 NR 11.7596 122.888 main 33 33 __________P___ -1 11.7596 122.888 4 11 325
1932331N10128 1932 77 WP MM NOT_NAMED 1932-11-28 03:00:00 NR 12.2246 122.588 main 60 55 __________P___ -1 12.2246 122.588 4 11 331
1932331N10128 1932 77 WP MM NOT_NAMED 1932-11-28 06:00:00 NR 12.7525 122.331 main 55 31 __________P___ -1 12.7525 122.331 4 12 338
1932331N10128 1932 77 WP MM NOT_NAMED 1932-11-28 09:00:00 NR 13.3119 122.143 main 39 24 __________P___ -1 13.3119 122.143 4 12 343
1932331N10128 1932 77 WP MM NOT_NAMED 1932-11-28 10:00:00 NR 13.5000 122.100 main 24 0 __________O___ -1 13.5000 122.100 4 11 349
1932331N10128 1932 77 WP MM NOT_NAMED 1932-11-28 12:00:00 NR 13.8576 122.025 main 0 0 __________P___ -1 13.8576 122.025 4 11 353
1932331N10128 1932 77 WP MM NOT_NAMED 1932-11-28 15:00:00 NR 14.4069 121.982 main 32 32 __________P___ -1 14.4069 121.982 4 11 360
1932331N10128 1932 77 WP MM NOT_NAMED 1932-11-28 18:00:00 NR 14.9633 122.020 main 46 46 __________P___ -1 14.9633 122.020 4 11 8
1932331N10128 1932 77 WP MM NOT_NAMED 1932-11-28 21:00:00 NR 15.5174 122.141 main 56 39 __________P___ -1 15.5174 122.141 4 11 13
1932331N10128 1932 77 WP MM NOT_NAMED 1932-11-28 22:00:00 NR 15.7000 122.200 main 39 15 __________O___ -1 15.7000 122.200 4 12 18
1932331N10128 1932 77 WP MM NOT_NAMED 1932-11-29 00:00:00 NR 16.0689 122.334 main 15 15 __________P___ -1 16.0689 122.334 4 12 23
1932331N10128 1932 77 WP MM NOT_NAMED 1932-11-29 03:00:00 NR 16.6162 122.605 main 30 21 __________P___ -1 16.6162 122.605 4 12 28
1932331N10128 1932 77 WP MM NOT_NAMED 1932-11-29 06:00:00 NR 17.1451 122.932 main 43 57 __________P___ -1 17.1451 122.932 4 12 32
1932331N10128 1932 77 WP MM NOT_NAMED 1932-11-29 09:00:00 NR 17.6430 123.283 main 101 105 __________P___ -1 17.6430 123.283 4 12 34
1932331N10128 1932 77 WP MM NOT_NAMED 1932-11-29 10:00:00 NR 17.8000 123.400 main 119 119 __________O___ -1 17.8000 123.400 4 11 36
1932331N10128 1932 77 WP MM NOT_NAMED 1932-11-29 12:00:00 NR 18.0989 123.629 main 139 139 __________P___ -1 18.0989 123.629 4 11 37
1932331N10128 1932 77 WP MM NOT_NAMED 1932-11-29 15:00:00 NR 18.5155 123.959 main 179 179 __________P___ -1 18.5155 123.959 4 10 37
1932331N10128 1932 77 WP MM NOT_NAMED 1932-11-29 18:00:00 NR 18.9044 124.280 main 218 218 __________P___ -1 18.9044 124.280 4 10 38
1932331N10128 1932 77 WP MM NOT_NAMED 1932-11-29 21:00:00 NR 19.2773 124.595 main 262 262 __________P___ -1 19.2773 124.595 4 10 39
1932331N10128 1932 77 WP MM NOT_NAMED 1932-11-29 22:00:00 NR 19.4000 124.700 main 276 __________O___ -1 19.4000 124.700 4 9 39

デジタル台風データ・検索

IBTrACS Databaseについて

本データベースは、米国NOAAが公開する1842年以降の世界の熱帯低気圧のベストトラックデータアーカイブInternational Best Track Archive for Climate Stewardship (IBTrACS)を、ウェブで閲覧しやすい形式に変換したものです。

最終更新日:2021-11-26